sensor_id;sensor_type;location;lat;lon;timestamp;temperature;humidity
22852;DHT22;11592;45.460;9.240;2023-06-14T00:00:47;21.40;99.90
22852;DHT22;11592;45.460;9.240;2023-06-14T00:03:15;21.40;99.90
22852;DHT22;11592;45.460;9.240;2023-06-14T00:05:44;21.40;99.90
22852;DHT22;11592;45.460;9.240;2023-06-14T00:08:14;21.30;99.90
22852;DHT22;11592;45.460;9.240;2023-06-14T00:10:41;21.20;99.90
22852;DHT22;11592;45.460;9.240;2023-06-14T00:13:09;21.10;99.90
22852;DHT22;11592;45.460;9.240;2023-06-14T00:15:36;21.10;99.90
22852;DHT22;11592;45.460;9.240;2023-06-14T00:18:04;21.00;99.90
22852;DHT22;11592;45.460;9.240;2023-06-14T00:20:32;21.00;99.90
22852;DHT22;11592;45.460;9.240;2023-06-14T00:23:00;20.80;99.90
22852;DHT22;11592;45.460;9.240;2023-06-14T00:25:27;20.80;99.90
22852;DHT22;11592;45.460;9.240;2023-06-14T00:27:57;20.60;99.90
22852;DHT22;11592;45.460;9.240;2023-06-14T00:30:24;20.50;99.90
22852;DHT22;11592;45.460;9.240;2023-06-14T00:32:51;20.30;99.90
22852;DHT22;11592;45.460;9.240;2023-06-14T00:35:19;20.30;99.90
22852;DHT22;11592;45.460;9.240;2023-06-14T00:37:45;20.30;99.90
22852;DHT22;11592;45.460;9.240;2023-06-14T00:40:13;20.40;99.90
22852;DHT22;11592;45.460;9.240;2023-06-14T00:42:40;20.40;99.90
22852;DHT22;11592;45.460;9.240;2023-06-14T00:45:07;20.40;99.90
22852;DHT22;11592;45.460;9.240;2023-06-14T00:47:36;20.40;99.90
22852;DHT22;11592;45.460;9.240;2023-06-14T00:50:07;20.30;99.90
22852;DHT22;11592;45.460;9.240;2023-06-14T00:52:34;20.30;99.90
22852;DHT22;11592;45.460;9.240;2023-06-14T00:55:01;20.20;99.90
22852;DHT22;11592;45.460;9.240;2023-06-14T00:57:29;20.30;99.90
22852;DHT22;11592;45.460;9.240;2023-06-14T00:59:56;20.20;99.90
22852;DHT22;11592;45.460;9.240;2023-06-14T01:02:23;20.20;99.90
22852;DHT22;11592;45.460;9.240;2023-06-14T01:04:51;20.10;99.90
22852;DHT22;11592;45.460;9.240;2023-06-14T01:07:46;20.00;99.90
22852;DHT22;11592;45.460;9.240;2023-06-14T01:13:10;20.00;99.90
22852;DHT22;11592;45.460;9.240;2023-06-14T01:15:40;20.10;99.90
22852;DHT22;11592;45.460;9.240;2023-06-14T01:18:07;20.10;99.90
22852;DHT22;11592;45.460;9.240;2023-06-14T01:20:35;20.10;99.90
22852;DHT22;11592;45.460;9.240;2023-06-14T01:23:05;20.00;99.90
22852;DHT22;11592;45.460;9.240;2023-06-14T01:25:32;20.00;99.90
22852;DHT22;11592;45.460;9.240;2023-06-14T01:28:03;19.90;99.90
22852;DHT22;11592;45.460;9.240;2023-06-14T01:30:31;20.00;99.90
22852;DHT22;11592;45.460;9.240;2023-06-14T01:33:00;20.00;99.90
22852;DHT22;11592;45.460;9.240;2023-06-14T01:35:27;20.00;99.90
22852;DHT22;11592;45.460;9.240;2023-06-14T01:37:54;19.90;99.90
22852;DHT22;11592;45.460;9.240;2023-06-14T01:40:21;20.00;99.90
22852;DHT22;11592;45.460;9.240;2023-06-14T01:42:49;20.00;99.90
22852;DHT22;11592;45.460;9.240;2023-06-14T01:45:18;19.90;99.90
22852;DHT22;11592;45.460;9.240;2023-06-14T01:47:47;19.80;99.90
22852;DHT22;11592;45.460;9.240;2023-06-14T01:50:14;19.80;99.90
22852;DHT22;11592;45.460;9.240;2023-06-14T01:52:42;19.70;99.90
22852;DHT22;11592;45.460;9.240;2023-06-14T01:55:09;19.70;99.90
22852;DHT22;11592;45.460;9.240;2023-06-14T01:57:36;19.70;99.90
22852;DHT22;11592;45.460;9.240;2023-06-14T02:00:04;19.80;99.90
22852;DHT22;11592;45.460;9.240;2023-06-14T02:02:34;19.70;99.90
22852;DHT22;11592;45.460;9.240;2023-06-14T02:05:01;19.70;99.90
22852;DHT22;11592;45.460;9.240;2023-06-14T02:07:28;19.60;99.90
22852;DHT22;11592;45.460;9.240;2023-06-14T02:09:55;19.60;99.90
22852;DHT22;11592;45.460;9.240;2023-06-14T02:12:22;19.60;99.90
22852;DHT22;11592;45.460;9.240;2023-06-14T02:14:49;19.50;99.90
22852;DHT22;11592;45.460;9.240;2023-06-14T02:17:16;19.50;99.90
22852;DHT22;11592;45.460;9.240;2023-06-14T02:19:43;19.40;99.90
22852;DHT22;11592;45.460;9.240;2023-06-14T02:22:10;19.40;99.90
22852;DHT22;11592;45.460;9.240;2023-06-14T02:24:37;19.40;99.90
22852;DHT22;11592;45.460;9.240;2023-06-14T02:27:04;19.30;99.90
22852;DHT22;11592;45.460;9.240;2023-06-14T02:29:31;19.30;99.90
22852;DHT22;11592;45.460;9.240;2023-06-14T02:31:58;19.40;99.90
22852;DHT22;11592;45.460;9.240;2023-06-14T02:34:25;19.50;99.90
22852;DHT22;11592;45.460;9.240;2023-06-14T02:36:52;19.50;99.90
22852;DHT22;11592;45.460;9.240;2023-06-14T02:39:19;19.40;99.90
22852;DHT22;11592;45.460;9.240;2023-06-14T02:41:47;19.40;99.90
22852;DHT22;11592;45.460;9.240;2023-06-14T02:44:14;19.40;99.90
22852;DHT22;11592;45.460;9.240;2023-06-14T02:46:41;19.30;99.90
22852;DHT22;11592;45.460;9.240;2023-06-14T02:49:11;19.40;99.90
22852;DHT22;11592;45.460;9.240;2023-06-14T02:51:37;19.30;99.90
22852;DHT22;11592;45.460;9.240;2023-06-14T02:54:04;19.40;99.90
22852;DHT22;11592;45.460;9.240;2023-06-14T02:56:31;19.40;99.90
22852;DHT22;11592;45.460;9.240;2023-06-14T02:58:58;19.40;99.90
22852;DHT22;11592;45.460;9.240;2023-06-14T03:01:26;19.30;99.90
22852;DHT22;11592;45.460;9.240;2023-06-14T03:04:03;19.30;99.90
22852;DHT22;11592;45.460;9.240;2023-06-14T03:06:31;19.40;99.90
22852;DHT22;11592;45.460;9.240;2023-06-14T03:08:58;19.40;99.90
22852;DHT22;11592;45.460;9.240;2023-06-14T03:11:32;19.30;99.90
22852;DHT22;11592;45.460;9.240;2023-06-14T03:14:00;19.30;99.90
22852;DHT22;11592;45.460;9.240;2023-06-14T03:16:27;19.40;99.90
22852;DHT22;11592;45.460;9.240;2023-06-14T03:18:55;19.40;99.90
22852;DHT22;11592;45.460;9.240;2023-06-14T03:21:22;19.40;99.90
22852;DHT22;11592;45.460;9.240;2023-06-14T03:23:49;19.30;99.90
22852;DHT22;11592;45.460;9.240;2023-06-14T03:26:16;19.30;99.90
22852;DHT22;11592;45.460;9.240;2023-06-14T03:28:47;19.40;99.90
22852;DHT22;11592;45.460;9.240;2023-06-14T03:31:15;19.30;99.90
22852;DHT22;11592;45.460;9.240;2023-06-14T03:33:43;19.40;99.90
22852;DHT22;11592;45.460;9.240;2023-06-14T03:36:09;19.40;99.90
22852;DHT22;11592;45.460;9.240;2023-06-14T03:38:36;19.30;99.90
22852;DHT22;11592;45.460;9.240;2023-06-14T03:41:03;19.20;99.90
22852;DHT22;11592;45.460;9.240;2023-06-14T03:43:30;19.30;99.90
22852;DHT22;11592;45.460;9.240;2023-06-14T03:45:56;19.20;99.90
22852;DHT22;11592;45.460;9.240;2023-06-14T03:48:23;19.20;99.90
22852;DHT22;11592;45.460;9.240;2023-06-14T03:50:51;19.20;99.90
22852;DHT22;11592;45.460;9.240;2023-06-14T03:53:17;19.20;99.90
22852;DHT22;11592;45.460;9.240;2023-06-14T03:55:47;19.10;99.90
22852;DHT22;11592;45.460;9.240;2023-06-14T03:58:18;19.20;99.90
22852;DHT22;11592;45.460;9.240;2023-06-14T04:00:45;19.20;99.90
22852;DHT22;11592;45.460;9.240;2023-06-14T04:03:12;19.30;99.90
22852;DHT22;11592;45.460;9.240;2023-06-14T04:05:42;19.30;99.90
22852;DHT22;11592;45.460;9.240;2023-06-14T04:08:09;19.30;99.90
22852;DHT22;11592;45.460;9.240;2023-06-14T04:10:36;19.20;99.90
22852;DHT22;11592;45.460;9.240;2023-06-14T04:13:03;19.20;99.90
22852;DHT22;11592;45.460;9.240;2023-06-14T04:15:31;19.20;99.90
22852;DHT22;11592;45.460;9.240;2023-06-14T04:17:58;19.20;99.90
22852;DHT22;11592;45.460;9.240;2023-06-14T04:20:25;19.20;99.90
22852;DHT22;11592;45.460;9.240;2023-06-14T04:22:52;19.20;99.90
22852;DHT22;11592;45.460;9.240;2023-06-14T04:25:19;19.10;99.90
22852;DHT22;11592;45.460;9.240;2023-06-14T04:27:50;19.20;99.90
22852;DHT22;11592;45.460;9.240;2023-06-14T04:30:17;19.20;99.90
22852;DHT22;11592;45.460;9.240;2023-06-14T04:32:44;19.30;99.90
22852;DHT22;11592;45.460;9.240;2023-06-14T04:35:12;19.20;99.90
22852;DHT22;11592;45.460;9.240;2023-06-14T04:37:40;19.10;99.90
22852;DHT22;11592;45.460;9.240;2023-06-14T04:40:08;19.10;99.90
22852;DHT22;11592;45.460;9.240;2023-06-14T04:42:38;19.10;99.90
22852;DHT22;11592;45.460;9.240;2023-06-14T04:45:08;19.20;99.90
22852;DHT22;11592;45.460;9.240;2023-06-14T04:47:35;19.30;99.90
22852;DHT22;11592;45.460;9.240;2023-06-14T04:50:04;19.30;99.90
22852;DHT22;11592;45.460;9.240;2023-06-14T04:52:31;19.20;99.90
22852;DHT22;11592;45.460;9.240;2023-06-14T04:54:58;19.30;99.90
22852;DHT22;11592;45.460;9.240;2023-06-14T04:57:25;19.30;99.90
22852;DHT22;11592;45.460;9.240;2023-06-14T04:59:52;19.30;99.90
22852;DHT22;11592;45.460;9.240;2023-06-14T05:02:22;19.30;99.90
22852;DHT22;11592;45.460;9.240;2023-06-14T05:04:50;19.30;99.90
22852;DHT22;11592;45.460;9.240;2023-06-14T05:07:17;19.40;99.90
22852;DHT22;11592;45.460;9.240;2023-06-14T05:09:45;19.30;99.90
22852;DHT22;11592;45.460;9.240;2023-06-14T05:12:12;19.30;99.90
22852;DHT22;11592;45.460;9.240;2023-06-14T05:14:39;19.40;99.90
22852;DHT22;11592;45.460;9.240;2023-06-14T05:17:06;19.40;99.90
22852;DHT22;11592;45.460;9.240;2023-06-14T05:19:33;19.40;99.90
22852;DHT22;11592;45.460;9.240;2023-06-14T05:21:59;19.40;99.90
22852;DHT22;11592;45.460;9.240;2023-06-14T05:24:27;19.30;99.90
22852;DHT22;11592;45.460;9.240;2023-06-14T05:26:56;19.40;99.90
22852;DHT22;11592;45.460;9.240;2023-06-14T05:29:23;19.50;99.90
22852;DHT22;11592;45.460;9.240;2023-06-14T05:31:49;19.50;99.90
22852;DHT22;11592;45.460;9.240;2023-06-14T05:34:16;19.50;99.90
22852;DHT22;11592;45.460;9.240;2023-06-14T05:36:43;19.50;99.90
22852;DHT22;11592;45.460;9.240;2023-06-14T05:39:10;19.50;99.90
22852;DHT22;11592;45.460;9.240;2023-06-14T05:41:37;19.50;99.90
22852;DHT22;11592;45.460;9.240;2023-06-14T05:44:04;19.60;99.90
22852;DHT22;11592;45.460;9.240;2023-06-14T05:46:31;19.60;99.90
22852;DHT22;11592;45.460;9.240;2023-06-14T05:48:57;19.70;99.90
22852;DHT22;11592;45.460;9.240;2023-06-14T05:51:24;19.70;99.90
22852;DHT22;11592;45.460;9.240;2023-06-14T05:53:52;19.70;99.90
22852;DHT22;11592;45.460;9.240;2023-06-14T05:56:19;19.70;99.90
22852;DHT22;11592;45.460;9.240;2023-06-14T05:58:46;19.70;99.90
22852;DHT22;11592;45.460;9.240;2023-06-14T06:01:13;19.80;99.90
22852;DHT22;11592;45.460;9.240;2023-06-14T06:03:41;19.90;99.90
22852;DHT22;11592;45.460;9.240;2023-06-14T06:06:08;20.00;99.90
22852;DHT22;11592;45.460;9.240;2023-06-14T06:08:35;20.10;99.90
22852;DHT22;11592;45.460;9.240;2023-06-14T06:11:01;20.10;99.90
22852;DHT22;11592;45.460;9.240;2023-06-14T06:13:28;20.10;99.90
22852;DHT22;11592;45.460;9.240;2023-06-14T06:15:55;20.20;99.90
22852;DHT22;11592;45.460;9.240;2023-06-14T06:18:23;20.10;99.90
22852;DHT22;11592;45.460;9.240;2023-06-14T06:20:49;20.20;99.90
22852;DHT22;11592;45.460;9.240;2023-06-14T06:23:16;20.30;99.90
22852;DHT22;11592;45.460;9.240;2023-06-14T06:25:43;20.40;99.90
22852;DHT22;11592;45.460;9.240;2023-06-14T06:28:10;20.50;99.90
22852;DHT22;11592;45.460;9.240;2023-06-14T06:30:38;20.50;99.90
22852;DHT22;11592;45.460;9.240;2023-06-14T06:33:05;20.50;99.90
22852;DHT22;11592;45.460;9.240;2023-06-14T06:35:32;20.60;99.90
22852;DHT22;11592;45.460;9.240;2023-06-14T06:38:00;20.70;99.90
22852;DHT22;11592;45.460;9.240;2023-06-14T06:40:27;20.70;99.90
22852;DHT22;11592;45.460;9.240;2023-06-14T06:42:54;20.80;99.90
22852;DHT22;11592;45.460;9.240;2023-06-14T06:45:21;20.90;99.90
22852;DHT22;11592;45.460;9.240;2023-06-14T06:47:51;20.90;99.90
22852;DHT22;11592;45.460;9.240;2023-06-14T06:50:18;21.00;99.90
22852;DHT22;11592;45.460;9.240;2023-06-14T06:52:46;21.00;99.90
22852;DHT22;11592;45.460;9.240;2023-06-14T06:55:13;21.10;99.90
22852;DHT22;11592;45.460;9.240;2023-06-14T06:57:41;21.10;99.90
22852;DHT22;11592;45.460;9.240;2023-06-14T07:00:09;21.10;99.90
22852;DHT22;11592;45.460;9.240;2023-06-14T07:02:36;21.20;99.90
22852;DHT22;11592;45.460;9.240;2023-06-14T07:05:03;21.30;99.90
22852;DHT22;11592;45.460;9.240;2023-06-14T07:07:31;21.40;99.90
22852;DHT22;11592;45.460;9.240;2023-06-14T07:09:58;21.40;99.90
22852;DHT22;11592;45.460;9.240;2023-06-14T07:12:26;21.50;99.90
22852;DHT22;11592;45.460;9.240;2023-06-14T07:14:53;21.60;99.90
22852;DHT22;11592;45.460;9.240;2023-06-14T07:17:20;21.60;99.90
22852;DHT22;11592;45.460;9.240;2023-06-14T07:19:47;21.80;99.90
22852;DHT22;11592;45.460;9.240;2023-06-14T07:22:14;21.80;99.90
22852;DHT22;11592;45.460;9.240;2023-06-14T07:24:41;21.90;99.90
22852;DHT22;11592;45.460;9.240;2023-06-14T07:27:09;22.00;99.90
22852;DHT22;11592;45.460;9.240;2023-06-14T07:29:40;22.10;99.90
22852;DHT22;11592;45.460;9.240;2023-06-14T07:32:07;22.10;99.90
22852;DHT22;11592;45.460;9.240;2023-06-14T07:34:34;22.10;99.90
22852;DHT22;11592;45.460;9.240;2023-06-14T07:37:01;22.10;99.90
22852;DHT22;11592;45.460;9.240;2023-06-14T07:39:27;22.10;99.90
22852;DHT22;11592;45.460;9.240;2023-06-14T07:41:54;22.10;99.90
22852;DHT22;11592;45.460;9.240;2023-06-14T07:44:21;22.20;99.90
22852;DHT22;11592;45.460;9.240;2023-06-14T07:46:48;22.20;99.90
22852;DHT22;11592;45.460;9.240;2023-06-14T07:49:16;22.30;99.90
22852;DHT22;11592;45.460;9.240;2023-06-14T07:51:43;22.40;99.90
22852;DHT22;11592;45.460;9.240;2023-06-14T07:54:11;22.40;99.90
22852;DHT22;11592;45.460;9.240;2023-06-14T07:56:38;22.50;99.90
22852;DHT22;11592;45.460;9.240;2023-06-14T07:59:05;22.50;99.90
22852;DHT22;11592;45.460;9.240;2023-06-14T08:01:32;22.60;99.90
22852;DHT22;11592;45.460;9.240;2023-06-14T08:04:00;22.50;99.90
22852;DHT22;11592;45.460;9.240;2023-06-14T08:06:27;22.50;99.90
22852;DHT22;11592;45.460;9.240;2023-06-14T08:08:54;22.60;99.90
22852;DHT22;11592;45.460;9.240;2023-06-14T08:11:20;22.70;99.90
22852;DHT22;11592;45.460;9.240;2023-06-14T08:13:47;22.80;99.90
22852;DHT22;11592;45.460;9.240;2023-06-14T08:16:14;22.80;99.90
22852;DHT22;11592;45.460;9.240;2023-06-14T08:18:41;22.90;99.90
22852;DHT22;11592;45.460;9.240;2023-06-14T08:21:08;23.00;99.90
22852;DHT22;11592;45.460;9.240;2023-06-14T08:23:35;23.10;99.90
22852;DHT22;11592;45.460;9.240;2023-06-14T08:26:02;23.10;99.90
22852;DHT22;11592;45.460;9.240;2023-06-14T08:28:30;23.20;99.90
22852;DHT22;11592;45.460;9.240;2023-06-14T08:30:57;23.20;99.90
22852;DHT22;11592;45.460;9.240;2023-06-14T08:33:24;23.30;99.90
22852;DHT22;11592;45.460;9.240;2023-06-14T08:35:51;23.30;99.90
22852;DHT22;11592;45.460;9.240;2023-06-14T08:38:18;23.20;99.90
22852;DHT22;11592;45.460;9.240;2023-06-14T08:40:48;23.30;99.90
22852;DHT22;11592;45.460;9.240;2023-06-14T08:43:16;23.40;99.90
22852;DHT22;11592;45.460;9.240;2023-06-14T08:45:46;23.60;99.90
22852;DHT22;11592;45.460;9.240;2023-06-14T08:48:13;23.70;99.90
22852;DHT22;11592;45.460;9.240;2023-06-14T08:50:45;23.70;99.90
22852;DHT22;11592;45.460;9.240;2023-06-14T08:53:13;23.70;99.90
22852;DHT22;11592;45.460;9.240;2023-06-14T08:55:43;23.70;99.90
22852;DHT22;11592;45.460;9.240;2023-06-14T08:58:10;23.70;99.90
22852;DHT22;11592;45.460;9.240;2023-06-14T09:00:41;23.80;99.90
22852;DHT22;11592;45.460;9.240;2023-06-14T09:03:09;23.90;99.90
22852;DHT22;11592;45.460;9.240;2023-06-14T09:05:40;24.00;99.90
22852;DHT22;11592;45.460;9.240;2023-06-14T09:08:07;24.10;99.90
22852;DHT22;11592;45.460;9.240;2023-06-14T09:10:34;24.30;99.90
22852;DHT22;11592;45.460;9.240;2023-06-14T09:13:04;24.40;99.90
22852;DHT22;11592;45.460;9.240;2023-06-14T09:15:31;24.30;99.90
22852;DHT22;11592;45.460;9.240;2023-06-14T09:18:01;24.40;99.90
22852;DHT22;11592;45.460;9.240;2023-06-14T09:20:30;24.50;99.90
22852;DHT22;11592;45.460;9.240;2023-06-14T09:22:58;24.50;99.90
22852;DHT22;11592;45.460;9.240;2023-06-14T09:25:25;24.60;99.90
22852;DHT22;11592;45.460;9.240;2023-06-14T09:28:07;24.70;99.90
22852;DHT22;11592;45.460;9.240;2023-06-14T09:30:36;24.80;99.90
22852;DHT22;11592;45.460;9.240;2023-06-14T09:33:04;25.00;99.90
22852;DHT22;11592;45.460;9.240;2023-06-14T09:35:31;25.00;99.90
22852;DHT22;11592;45.460;9.240;2023-06-14T09:37:58;25.10;99.90
22852;DHT22;11592;45.460;9.240;2023-06-14T09:40:26;25.10;99.90
22852;DHT22;11592;45.460;9.240;2023-06-14T09:42:54;25.20;99.90
22852;DHT22;11592;45.460;9.240;2023-06-14T09:45:24;25.30;99.90
22852;DHT22;11592;45.460;9.240;2023-06-14T09:47:55;25.40;99.90
22852;DHT22;11592;45.460;9.240;2023-06-14T09:50:34;25.40;99.90
22852;DHT22;11592;45.460;9.240;2023-06-14T09:53:10;25.40;99.90
22852;DHT22;11592;45.460;9.240;2023-06-14T09:55:38;25.20;99.90
22852;DHT22;11592;45.460;9.240;2023-06-14T09:58:08;25.30;99.90
22852;DHT22;11592;45.460;9.240;2023-06-14T10:00:36;25.30;99.90
22852;DHT22;11592;45.460;9.240;2023-06-14T10:03:21;25.40;99.90
22852;DHT22;11592;45.460;9.240;2023-06-14T10:05:50;25.70;99.90
22852;DHT22;11592;45.460;9.240;2023-06-14T10:08:19;25.70;99.90
22852;DHT22;11592;45.460;9.240;2023-06-14T10:10:50;25.80;99.90
22852;DHT22;11592;45.460;9.240;2023-06-14T10:13:18;26.00;99.90
22852;DHT22;11592;45.460;9.240;2023-06-14T10:15:52;26.20;99.90
22852;DHT22;11592;45.460;9.240;2023-06-14T10:23:33;26.10;99.90
22852;DHT22;11592;45.460;9.240;2023-06-14T10:26:02;26.10;99.90
22852;DHT22;11592;45.460;9.240;2023-06-14T10:28:28;26.30;99.90
22852;DHT22;11592;45.460;9.240;2023-06-14T10:33:34;26.40;99.90
22852;DHT22;11592;45.460;9.240;2023-06-14T10:36:31;26.40;99.90
22852;DHT22;11592;45.460;9.240;2023-06-14T10:41:37;26.50;99.90
22852;DHT22;11592;45.460;9.240;2023-06-14T10:46:45;26.60;99.90
22852;DHT22;11592;45.460;9.240;2023-06-14T10:49:15;26.70;99.90
22852;DHT22;11592;45.460;9.240;2023-06-14T10:51:49;26.80;99.90
22852;DHT22;11592;45.460;9.240;2023-06-14T10:54:16;26.70;99.90
22852;DHT22;11592;45.460;9.240;2023-06-14T10:56:51;26.80;99.90
22852;DHT22;11592;45.460;9.240;2023-06-14T10:59:19;26.80;99.90
22852;DHT22;11592;45.460;9.240;2023-06-14T11:04:51;26.80;99.90
22852;DHT22;11592;45.460;9.240;2023-06-14T11:12:32;28.10;99.90
22852;DHT22;11592;45.460;9.240;2023-06-14T11:14:59;28.50;99.90
22852;DHT22;11592;45.460;9.240;2023-06-14T11:17:26;28.80;99.90
22852;DHT22;11592;45.460;9.240;2023-06-14T11:20:10;29.10;99.90
22852;DHT22;11592;45.460;9.240;2023-06-14T11:22:43;29.20;99.90
22852;DHT22;11592;45.460;9.240;2023-06-14T11:25:11;29.20;99.90
22852;DHT22;11592;45.460;9.240;2023-06-14T11:27:39;29.10;99.90
22852;DHT22;11592;45.460;9.240;2023-06-14T11:30:07;28.90;99.90
22852;DHT22;11592;45.460;9.240;2023-06-14T11:32:35;28.40;99.90
22852;DHT22;11592;45.460;9.240;2023-06-14T11:35:03;28.00;99.90
22852;DHT22;11592;45.460;9.240;2023-06-14T11:37:31;27.90;99.90
22852;DHT22;11592;45.460;9.240;2023-06-14T11:40:02;27.90;99.90
22852;DHT22;11592;45.460;9.240;2023-06-14T11:42:31;28.20;99.90
22852;DHT22;11592;45.460;9.240;2023-06-14T11:44:58;28.10;99.90
22852;DHT22;11592;45.460;9.240;2023-06-14T11:47:36;27.90;99.90
22852;DHT22;11592;45.460;9.240;2023-06-14T11:50:04;28.00;99.90
22852;DHT22;11592;45.460;9.240;2023-06-14T11:52:32;27.80;99.90
22852;DHT22;11592;45.460;9.240;2023-06-14T11:54:59;27.90;99.90
22852;DHT22;11592;45.460;9.240;2023-06-14T11:57:26;27.90;99.90
22852;DHT22;11592;45.460;9.240;2023-06-14T11:59:55;27.90;99.90
22852;DHT22;11592;45.460;9.240;2023-06-14T12:02:22;28.00;99.90
22852;DHT22;11592;45.460;9.240;2023-06-14T12:04:51;28.30;99.90
22852;DHT22;11592;45.460;9.240;2023-06-14T12:07:18;28.70;99.90
22852;DHT22;11592;45.460;9.240;2023-06-14T12:12:25;28.90;99.90
22852;DHT22;11592;45.460;9.240;2023-06-14T12:14:53;28.50;99.90
22852;DHT22;11592;45.460;9.240;2023-06-14T12:17:22;28.60;99.90
22852;DHT22;11592;45.460;9.240;2023-06-14T12:19:50;28.80;99.90
22852;DHT22;11592;45.460;9.240;2023-06-14T12:22:17;28.70;99.90
22852;DHT22;11592;45.460;9.240;2023-06-14T12:24:44;28.40;99.90
22852;DHT22;11592;45.460;9.240;2023-06-14T12:27:12;28.00;99.90
22852;DHT22;11592;45.460;9.240;2023-06-14T12:29:42;27.90;99.90
22852;DHT22;11592;45.460;9.240;2023-06-14T12:32:12;28.30;99.90
22852;DHT22;11592;45.460;9.240;2023-06-14T12:34:39;28.60;99.90
22852;DHT22;11592;45.460;9.240;2023-06-14T12:37:06;28.60;99.90
22852;DHT22;11592;45.460;9.240;2023-06-14T12:39:33;28.40;99.90
22852;DHT22;11592;45.460;9.240;2023-06-14T12:42:00;28.40;99.90
22852;DHT22;11592;45.460;9.240;2023-06-14T12:44:27;29.00;99.90
22852;DHT22;11592;45.460;9.240;2023-06-14T12:46:54;29.50;99.90
22852;DHT22;11592;45.460;9.240;2023-06-14T12:49:21;29.30;99.90
22852;DHT22;11592;45.460;9.240;2023-06-14T12:51:48;29.50;99.90
22852;DHT22;11592;45.460;9.240;2023-06-14T12:54:15;29.90;99.90
22852;DHT22;11592;45.460;9.240;2023-06-14T12:56:54;29.80;99.40
22852;DHT22;11592;45.460;9.240;2023-06-14T12:59:21;29.40;99.90
22852;DHT22;11592;45.460;9.240;2023-06-14T13:01:48;29.60;99.90
22852;DHT22;11592;45.460;9.240;2023-06-14T13:04:17;30.00;99.90
22852;DHT22;11592;45.460;9.240;2023-06-14T13:06:43;30.30;99.90
22852;DHT22;11592;45.460;9.240;2023-06-14T13:09:10;30.40;99.90
22852;DHT22;11592;45.460;9.240;2023-06-14T13:11:37;30.70;99.90
22852;DHT22;11592;45.460;9.240;2023-06-14T13:14:04;31.00;99.90
22852;DHT22;11592;45.460;9.240;2023-06-14T13:16:51;31.10;99.90
22852;DHT22;11592;45.460;9.240;2023-06-14T13:19:18;30.60;99.90
22852;DHT22;11592;45.460;9.240;2023-06-14T13:21:44;30.70;99.90
22852;DHT22;11592;45.460;9.240;2023-06-14T13:24:11;31.00;99.90
22852;DHT22;11592;45.460;9.240;2023-06-14T13:26:38;31.30;99.90
22852;DHT22;11592;45.460;9.240;2023-06-14T13:29:05;31.10;99.90
22852;DHT22;11592;45.460;9.240;2023-06-14T13:31:32;30.60;98.50
22852;DHT22;11592;45.460;9.240;2023-06-14T13:33:59;30.00;99.50
22852;DHT22;11592;45.460;9.240;2023-06-14T13:36:26;30.20;99.90
22852;DHT22;11592;45.460;9.240;2023-06-14T13:38:53;30.40;99.90
22852;DHT22;11592;45.460;9.240;2023-06-14T13:41:21;30.70;99.00
22852;DHT22;11592;45.460;9.240;2023-06-14T13:43:48;30.70;98.50
22852;DHT22;11592;45.460;9.240;2023-06-14T13:46:15;31.00;97.90
22852;DHT22;11592;45.460;9.240;2023-06-14T13:48:42;31.20;99.90
22852;DHT22;11592;45.460;9.240;2023-06-14T13:51:09;31.90;99.90
22852;DHT22;11592;45.460;9.240;2023-06-14T13:53:35;32.10;96.60
22852;DHT22;11592;45.460;9.240;2023-06-14T13:56:02;31.80;98.70
22852;DHT22;11592;45.460;9.240;2023-06-14T13:58:29;32.20;97.20
22852;DHT22;11592;45.460;9.240;2023-06-14T14:00:56;32.40;97.70
22852;DHT22;11592;45.460;9.240;2023-06-14T14:03:23;32.40;97.40
22852;DHT22;11592;45.460;9.240;2023-06-14T14:05:50;32.10;99.60
22852;DHT22;11592;45.460;9.240;2023-06-14T14:08:17;31.80;97.40
22852;DHT22;11592;45.460;9.240;2023-06-14T14:10:44;31.20;98.20
22852;DHT22;11592;45.460;9.240;2023-06-14T14:13:11;30.80;97.30
22852;DHT22;11592;45.460;9.240;2023-06-14T14:15:39;30.50;97.20
22852;DHT22;11592;45.460;9.240;2023-06-14T14:18:06;31.20;99.00
22852;DHT22;11592;45.460;9.240;2023-06-14T14:20:33;31.00;97.20
22852;DHT22;11592;45.460;9.240;2023-06-14T14:23:00;30.90;98.40
22852;DHT22;11592;45.460;9.240;2023-06-14T14:25:27;31.80;99.90
22852;DHT22;11592;45.460;9.240;2023-06-14T14:27:54;32.60;97.20
22852;DHT22;11592;45.460;9.240;2023-06-14T14:30:22;33.40;98.70
22852;DHT22;11592;45.460;9.240;2023-06-14T14:32:50;33.90;96.50
22852;DHT22;11592;45.460;9.240;2023-06-14T14:35:18;34.00;93.80
22852;DHT22;11592;45.460;9.240;2023-06-14T14:37:45;33.70;92.80
22852;DHT22;11592;45.460;9.240;2023-06-14T14:40:12;33.00;94.60
22852;DHT22;11592;45.460;9.240;2023-06-14T14:42:39;32.70;95.10
22852;DHT22;11592;45.460;9.240;2023-06-14T14:45:06;32.00;97.00
22852;DHT22;11592;45.460;9.240;2023-06-14T14:47:33;31.50;98.10
22852;DHT22;11592;45.460;9.240;2023-06-14T14:50:00;30.80;95.80
22852;DHT22;11592;45.460;9.240;2023-06-14T14:52:27;30.70;96.70
22852;DHT22;11592;45.460;9.240;2023-06-14T14:54:54;30.70;96.90
22852;DHT22;11592;45.460;9.240;2023-06-14T14:57:21;30.30;97.20
22852;DHT22;11592;45.460;9.240;2023-06-14T14:59:48;30.00;98.50
22852;DHT22;11592;45.460;9.240;2023-06-14T15:02:15;30.00;99.90
22852;DHT22;11592;45.460;9.240;2023-06-14T15:04:41;30.30;99.90
22852;DHT22;11592;45.460;9.240;2023-06-14T15:07:08;30.70;98.10
22852;DHT22;11592;45.460;9.240;2023-06-14T15:09:36;31.00;98.30
22852;DHT22;11592;45.460;9.240;2023-06-14T15:12:03;31.40;98.30
22852;DHT22;11592;45.460;9.240;2023-06-14T15:14:30;31.40;97.20
22852;DHT22;11592;45.460;9.240;2023-06-14T15:16:57;31.70;98.20
22852;DHT22;11592;45.460;9.240;2023-06-14T15:19:25;31.80;98.30
22852;DHT22;11592;45.460;9.240;2023-06-14T15:21:52;31.90;99.70
22852;DHT22;11592;45.460;9.240;2023-06-14T15:24:19;31.70;98.00
22852;DHT22;11592;45.460;9.240;2023-06-14T15:27:03;31.30;98.10
22852;DHT22;11592;45.460;9.240;2023-06-14T15:29:30;31.00;99.30
22852;DHT22;11592;45.460;9.240;2023-06-14T15:31:57;30.90;99.10
22852;DHT22;11592;45.460;9.240;2023-06-14T15:34:24;30.20;99.50
22852;DHT22;11592;45.460;9.240;2023-06-14T15:36:51;29.90;99.90
22852;DHT22;11592;45.460;9.240;2023-06-14T15:39:18;29.90;99.90
22852;DHT22;11592;45.460;9.240;2023-06-14T15:41:45;29.70;99.90
22852;DHT22;11592;45.460;9.240;2023-06-14T15:44:11;30.00;99.80
22852;DHT22;11592;45.460;9.240;2023-06-14T15:46:38;30.20;99.90
22852;DHT22;11592;45.460;9.240;2023-06-14T15:49:09;30.10;99.30
22852;DHT22;11592;45.460;9.240;2023-06-14T15:51:37;30.10;99.60
22852;DHT22;11592;45.460;9.240;2023-06-14T15:54:04;30.10;99.90
22852;DHT22;11592;45.460;9.240;2023-06-14T15:56:31;30.10;99.90
22852;DHT22;11592;45.460;9.240;2023-06-14T15:58:58;30.10;99.90
22852;DHT22;11592;45.460;9.240;2023-06-14T16:01:26;30.40;99.70